Time;durP1;ratioP1;P1;durP2;ratioP2;P2;SDS_P1;SDS_P2;PMS_P1;PMS_P2;Temp;Humidity;BMP_temperature;BMP_pressure;BME280_temperature;BME280_humidity;BME280_pressure;Samples;Min_cycle;Max_cycle;Signal;HPM_P1;HPM_P2
2022/07/21 00:00:52;;;;;;;;;3.00;3.00;;;;;22.27;61.70;101343.91;5059085;28;45561;-61
2022/07/21 00:03:18;;;;;;;;;3.00;3.00;;;;;22.28;61.56;101345.63;5059369;28;45353;-60
2022/07/21 00:05:43;;;;;;;;;4.33;2.67;;;;;22.26;61.55;101331.34;5059286;28;45258;-62
2022/07/21 00:08:08;;;;;;;;;3.00;3.00;;;;;22.26;61.63;101325.91;5059209;28;45602;-60
2022/07/21 00:10:34;;;;;;;;;5.00;4.00;;;;;22.31;61.45;101329.06;5057700;28;47164;-61
2022/07/21 00:12:59;;;;;;;;;4.00;4.00;;;;;22.17;61.39;101309.69;5059137;28;45454;-61
2022/07/21 00:15:27;;;;;;;;;3.00;3.00;;;;;22.21;61.75;101327.38;5074918;27;45326;-65
2022/07/21 00:17:53;;;;;;;;;3.67;3.67;;;;;22.25;61.86;101334.19;5059126;28;45413;-60
2022/07/21 00:20:20;;;;;;;;;2.33;2.33;;;;;22.19;61.59;101324.81;5058797;28;46868;-61
2022/07/21 00:22:45;;;;;;;;;4.00;2.33;;;;;22.18;61.73;101320.38;5058727;28;45349;-60
2022/07/21 00:25:13;;;;;;;;;4.33;4.00;;;;;22.20;61.93;101322.94;5058963;28;45314;-60
2022/07/21 00:27:39;;;;;;;;;4.00;4.00;;;;;22.18;61.66;101323.09;5057577;28;45486;-59
2022/07/21 00:30:06;;;;;;;;;4.00;4.00;;;;;22.16;62.22;101325.09;5058599;28;46398;-61
2022/07/21 00:32:32;;;;;;;;;3.67;3.67;;;;;22.18;62.28;101323.09;5058645;28;45757;-61
2022/07/21 00:34:57;;;;;;;;;3.00;2.00;;;;;22.18;61.78;101325.81;5074667;28;45452;-61
2022/07/21 00:37:27;;;;;;;;;2.00;2.00;;;;;22.16;62.19;101325.09;5059013;28;45453;-60
2022/07/21 00:39:53;;;;;;;;;4.33;4.33;;;;;22.12;62.01;101329.06;5057370;28;46916;-60
2022/07/21 00:42:27;;;;;;;;;3.33;3.33;;;;;22.08;62.39;101333.06;5058980;28;45390;-60
2022/07/21 00:44:53;;;;;;;;;4.00;4.00;;;;;22.08;62.87;101330.34;5058751;28;45388;-61
2022/07/21 00:47:24;;;;;;;;;3.33;2.00;;;;;22.13;62.37;101341.63;5058769;28;45440;-60
2022/07/21 00:49:49;;;;;;;;;5.00;3.33;;;;;22.08;62.13;101322.22;5057120;28;48384;-60
2022/07/21 00:52:16;;;;;;;;;4.00;4.00;;;;;22.11;62.37;101321.94;5058428;28;45288;-59
2022/07/21 00:54:42;;;;;;;;;3.00;3.00;;;;;22.06;62.31;101321.53;5058546;28;45404;-61
2022/07/21 00:57:08;;;;;;;;;4.67;4.00;;;;;22.03;62.70;101317.22;5058447;28;45330;-60
2022/07/21 00:59:34;;;;;;;;;4.33;4.00;;;;;22.06;62.78;101322.38;5058071;28;45796;-59
2022/07/21 01:01:59;;;;;;;;;3.33;3.00;;;;;22.05;62.87;101325.19;5058127;28;45286;-60
2022/07/21 01:04:26;;;;;;;;;5.00;5.00;;;;;22.02;63.13;101328.19;5058500;28;45402;-61
2022/07/21 01:06:53;;;;;;;;;4.00;4.00;;;;;22.05;62.95;101333.31;5058946;28;45556;-61
2022/07/21 01:09:21;;;;;;;;;4.00;4.00;;;;;22.02;62.70;101322.78;5058435;28;45486;-61
2022/07/21 01:11:47;;;;;;;;;5.00;5.00;;;;;22.06;62.65;101325.09;5057853;28;45383;-60
2022/07/21 01:14:13;;;;;;;;;3.67;3.67;;;;;22.07;62.57;101325.94;5057800;28;45353;-61
2022/07/21 01:16:40;;;;;;;;;5.00;5.00;;;;;22.09;62.74;101329.34;5058392;28;45409;-60
2022/07/21 01:19:06;;;;;;;;;5.67;4.00;;;;;22.00;62.37;101314.78;5056374;28;46057;-60
2022/07/21 01:21:35;;;;;;;;;4.00;4.00;;;;;22.04;62.71;101326.19;5057895;28;45345;-60
2022/07/21 01:24:02;;;;;;;;;5.00;5.00;;;;;22.04;62.97;101334.31;5057918;28;45351;-60
2022/07/21 01:26:28;;;;;;;;;3.00;3.00;;;;;22.04;62.92;101337.03;5058107;28;45341;-60
2022/07/21 01:28:55;;;;;;;;;3.67;3.67;;;;;21.99;62.47;101318.47;5057989;28;46149;-59
2022/07/21 01:31:21;;;;;;;;;4.00;4.00;;;;;22.02;62.69;101322.78;5058459;28;45452;-60
2022/07/21 01:33:46;;;;;;;;;7.00;5.00;;;;;22.00;62.77;101319.34;5058026;28;45367;-60
2022/07/21 01:36:12;;;;;;;;;4.00;4.00;;;;;21.97;63.03;101316.91;5058021;28;45342;-60
2022/07/21 01:41:32;;;;;;;;;4.00;4.00;;;;;21.94;63.11;101309.09;5058680;28;45454;-61
2022/07/21 01:44:00;;;;;;;;;5.00;5.00;;;;;21.90;63.22;101302.25;5057694;28;45336;-61
2022/07/21 01:46:27;;;;;;;;;4.25;4.25;;;;;21.86;63.42;101300.81;5057830;28;45593;-60
2022/07/21 01:48:52;;;;;;;;;4.00;4.00;;;;;21.81;63.80;101297.69;5056798;28;46230;-60
2022/07/21 01:51:17;;;;;;;;;5.00;5.00;;;;;21.82;63.77;101293.97;5057517;28;45173;-58
2022/07/21 01:53:43;;;;;;;;;4.67;3.33;;;;;21.84;63.52;101302.81;5056312;28;45272;-59
2022/07/21 01:56:08;;;;;;;;;3.00;3.00;;;;;21.76;63.72;101312.50;5057919;28;45340;-60
2022/07/21 01:58:34;;;;;;;;;4.33;4.33;;;;;21.77;63.63;101319.63;5056275;28;45438;-62
2022/07/21 02:01:00;;;;;;;;;6.00;6.00;;;;;21.77;63.92;101319.63;5073301;28;45525;-60
2022/07/21 02:03:25;;;;;;;;;6.00;5.00;;;;;21.76;64.10;101323.34;5057832;28;45357;-62
2022/07/21 02:05:50;;;;;;;;;5.67;5.67;;;;;21.77;64.19;101327.75;5057690;28;45662;-60
2022/07/21 02:08:16;;;;;;;;;5.67;4.00;;;;;21.78;63.54;101329.47;5057195;28;46151;-60
2022/07/21 02:10:41;;;;;;;;;7.67;4.00;;;;;21.74;63.95;101325.31;5056979;28;45449;-60
2022/07/21 02:13:07;;;;;;;;;4.67;4.67;;;;;21.76;63.91;101327.91;5055117;28;45456;-60
2022/07/21 02:15:32;;;;;;;;;3.67;3.67;;;;;21.76;64.22;101317.91;5056125;28;45364;-60
2022/07/21 02:17:59;;;;;;;;;4.33;4.33;;;;;21.76;63.77;101331.47;5057080;28;46176;-60
2022/07/21 02:20:25;;;;;;;;;3.67;3.67;;;;;21.69;63.84;101322.16;5057217;28;45235;-60
2022/07/21 02:22:52;;;;;;;;;5.33;5.33;;;;;21.74;64.07;101332.56;5056941;28;45271;-60
2022/07/21 02:25:18;;;;;;;;;6.00;6.00;;;;;21.69;63.75;101329.44;5057241;28;45716;-60
2022/07/21 02:27:44;;;;;;;;;6.33;6.33;;;;;21.67;63.84;101326.88;5056609;28;46378;-60
2022/07/21 02:30:11;;;;;;;;;7.00;7.00;;;;;21.69;63.71;101322.16;5056537;28;45371;-60
2022/07/21 02:32:37;;;;;;;;;5.33;5.33;;;;;21.73;63.70;101331.72;5056779;28;45412;-60
2022/07/21 02:35:03;;;;;;;;;7.33;7.33;;;;;21.74;63.89;101330.72;5056909;28;45549;-60
2022/07/21 02:37:29;;;;;;;;;8.00;7.00;;;;;21.73;63.48;101329.00;5056688;28;46957;-59
2022/07/21 02:39:54;;;;;;;;;6.67;6.67;;;;;21.68;64.00;101330.44;5057000;27;45212;-59
2022/07/21 02:42:20;;;;;;;;;7.00;7.00;;;;;21.62;64.28;101331.00;5056842;28;45619;-60
2022/07/21 02:44:45;;;;;;;;;8.33;8.33;;;;;21.59;64.01;101332.13;5056700;28;45377;-60
2022/07/21 02:47:10;;;;;;;;;7.33;6.00;;;;;21.59;64.27;101337.53;5055872;28;46444;-61
2022/07/21 02:49:36;;;;;;;;;9.67;8.00;;;;;21.58;63.83;101333.13;5055186;28;45303;-60
2022/07/21 02:52:01;;;;;;;;;6.67;6.67;;;;;21.53;64.40;101332.69;5055771;28;45725;-59
2022/07/21 02:54:27;;;;;;;;;8.33;8.33;;;;;21.58;64.39;101341.22;5054443;28;45251;-59
2022/07/21 02:56:52;;;;;;;;;8.00;8.00;;;;;21.49;64.19;101331.25;5055193;28;46414;-59
2022/07/21 02:59:17;;;;;;;;;9.00;8.33;;;;;21.54;64.21;101342.50;5055083;28;45250;-60
2022/07/21 03:01:43;;;;;;;;;7.00;7.00;;;;;21.54;64.22;101344.38;5055093;28;45899;-60
2022/07/21 03:04:08;;;;;;;;;11.33;11.00;;;;;21.52;64.22;101347.22;5055189;28;45693;-59
2022/07/21 03:06:34;;;;;;;;;11.00;9.00;;;;;21.44;64.31;101333.50;5054904;28;45310;-60
2022/07/21 03:08:59;;;;;;;;;9.00;9.00;;;;;21.45;64.55;101340.63;5055281;28;45339;-60
2022/07/21 03:11:25;;;;;;;;;9.33;9.00;;;;;21.43;64.49;101348.88;5055642;28;45762;-61
2022/07/21 03:13:50;;;;;;;;;9.00;7.00;;;;;21.38;63.95;101336.78;5055387;28;45800;-61
2022/07/21 03:16:16;;;;;;;;;8.00;7.33;;;;;21.39;64.50;101354.72;5054599;28;45918;-60
2022/07/21 03:18:41;;;;;;;;;14.67;10.00;;;;;21.32;64.52;101346.28;5053767;28;45369;-61
2022/07/21 03:21:07;;;;;;;;;9.00;9.00;;;;;21.32;64.64;101340.88;5055152;28;45378;-60
2022/07/21 03:23:33;;;;;;;;;10.67;10.67;;;;;21.31;64.47;101355.41;5055046;28;45479;-59
2022/07/21 03:25:58;;;;;;;;;8.00;7.67;;;;;21.23;64.55;101351.66;5053854;28;46250;-61
2022/07/21 03:28:23;;;;;;;;;15.00;12.67;;;;;21.19;64.54;101357.31;5054533;28;45478;-61
2022/07/21 03:30:49;;;;;;;;;10.67;9.33;;;;;21.13;64.86;101362.41;5054879;28;45318;-61
2022/07/21 03:33:14;;;;;;;;;12.67;12.00;;;;;21.10;65.04;101363.56;5054660;28;45654;-60
2022/07/21 03:35:40;;;;;;;;;13.33;12.33;;;;;21.06;65.22;101372.91;5053003;28;46128;-60
2022/07/21 03:38:05;;;;;;;;;14.00;12.33;;;;;21.03;65.39;101361.50;5054284;28;45313;-60
2022/07/21 03:40:34;;;;;;;;;17.33;14.00;;;;;21.01;65.25;101375.16;5054802;28;45312;-61
2022/07/21 03:43:01;;;;;;;;;15.33;13.33;;;;;20.90;65.42;101373.41;5055345;28;45272;-61
2022/07/21 03:45:30;;;;;;;;;15.00;14.67;;;;;20.82;65.26;101369.63;5054628;28;45597;-61
2022/07/21 03:47:57;;;;;;;;;15.33;14.00;;;;;20.77;65.96;101361.09;5014387;28;1159985;-61
2022/07/21 03:50:23;;;;;;;;;16.00;15.00;;;;;20.76;66.04;101365.63;5055902;28;45300;-60
2022/07/21 03:52:48;;;;;;;;;13.00;12.33;;;;;20.78;66.08;101370.91;5054633;28;45805;-61
2022/07/21 03:55:17;;;;;;;;;14.67;14.67;;;;;20.76;66.24;101381.84;5055700;28;45975;-61
2022/07/21 03:57:50;;;;;;;;;14.00;14.00;;;;;20.77;66.16;101380.00;5055717;28;45354;-60
2022/07/21 04:00:19;;;;;;;;;16.00;16.00;;;;;20.74;66.02;101380.28;5055834;28;45296;-60
2022/07/21 04:02:45;;;;;;;;;14.67;14.67;;;;;20.66;66.22;101374.66;5055721;28;45346;-61
2022/07/21 04:05:12;;;;;;;;;13.00;13.00;;;;;20.68;66.67;101383.50;5055381;28;45419;-61
2022/07/21 04:07:40;;;;;;;;;16.00;16.00;;;;;20.68;66.68;101388.91;5055406;28;45353;-60
2022/07/21 04:10:07;;;;;;;;;19.00;19.00;;;;;20.71;66.72;101372.44;5055500;28;45361;-60
2022/07/21 04:12:32;;;;;;;;;20.33;17.33;;;;;20.68;66.85;101383.50;5056618;28;45395;-60
2022/07/21 04:14:57;;;;;;;;;17.33;17.33;;;;;20.70;66.95;101386.91;5056448;28;45615;-63
2022/07/21 04:17:23;;;;;;;;;17.33;17.33;;;;;20.69;67.14;101377.09;5056270;28;45274;-61
2022/07/21 04:19:49;;;;;;;;;14.00;13.67;;;;;20.70;66.90;101382.38;5056926;28;45830;-61
2022/07/21 04:22:14;;;;;;;;;16.00;16.00;;;;;20.64;67.02;101382.06;5056384;28;45325;-61
2022/07/21 04:24:40;;;;;;;;;18.00;18.00;;;;;20.66;67.23;101385.47;5055173;28;45695;-59
2022/07/21 04:27:05;;;;;;;;;20.00;18.00;;;;;20.68;67.25;101386.19;5055193;28;45405;-62
2022/07/21 04:29:30;;;;;;;;;17.67;17.67;;;;;20.68;67.27;101389.75;5055578;28;45455;-61
2022/07/21 04:31:56;;;;;;;;;25.67;18.33;;;;;20.71;67.07;101394.06;5055369;28;45319;-61
2022/07/21 04:34:21;;;;;;;;;21.00;18.67;;;;;20.71;67.08;101396.78;5055276;28;45364;-61
2022/07/21 04:36:46;;;;;;;;;18.33;17.00;;;;;20.76;67.01;101398.06;5056470;28;45225;-61
2022/07/21 04:39:12;;;;;;;;;18.67;18.67;;;;;20.81;67.17;101400.38;5058747;28;45361;-62
2022/07/21 04:41:37;;;;;;;;;18.00;17.00;;;;;20.79;67.02;101391.53;5058880;28;45534;-61
2022/07/21 04:44:03;;;;;;;;;23.00;18.67;;;;;20.79;66.69;101397.81;5058411;28;46121;-61
2022/07/21 04:46:28;;;;;;;;;20.00;18.67;;;;;20.80;66.73;101387.84;5056692;28;45468;-60
2022/07/21 04:48:54;;;;;;;;;18.67;18.67;;;;;20.84;66.73;101400.97;5058742;28;45521;-61
2022/07/21 04:51:19;;;;;;;;;18.67;16.00;;;;;20.83;66.87;101391.16;5059172;28;45653;-60
2022/07/21 04:53:45;;;;;;;;;18.00;16.67;;;;;20.85;66.69;101394.59;5057481;28;45875;-60
2022/07/21 04:56:10;;;;;;;;;19.00;19.00;;;;;20.80;66.66;101390.53;5057731;28;45799;-60
2022/07/21 04:58:36;;;;;;;;;19.00;19.00;;;;;20.79;66.61;101405.06;5059672;28;45468;-60
2022/07/21 05:01:01;;;;;;;;;23.33;22.00;;;;;20.81;66.77;101408.47;5060044;28;45302;-59
2022/07/21 05:03:26;;;;;;;;;17.67;17.67;;;;;20.83;66.87;101407.38;5059693;28;45429;-59
2022/07/21 05:05:52;;;;;;;;;19.33;17.33;;;;;20.86;66.76;101414.38;5058843;28;45228;-63
2022/07/21 05:08:17;;;;;;;;;25.00;21.33;;;;;20.83;66.83;101403.78;5058391;28;45266;-60
2022/07/21 05:10:42;;;;;;;;;20.00;18.00;;;;;20.82;66.83;101408.34;5058753;28;45358;-60
2022/07/21 05:13:08;;;;;;;;;16.33;15.67;;;;;20.83;66.77;101401.09;5058362;28;45415;-61
2022/07/21 05:15:33;;;;;;;;;21.67;17.33;;;;;20.79;66.54;101386.13;5058273;28;45428;-61
2022/07/21 05:17:59;;;;;;;;;18.33;17.00;;;;;20.97;66.73;101417.00;5057801;28;45707;-60
2022/07/21 05:20:24;;;;;;;;;22.00;18.33;;;;;20.98;66.80;101409.75;5058075;28;45476;-60
2022/07/21 05:22:49;;;;;;;;;17.00;17.00;;;;;20.98;66.75;101405.19;5039858;28;46301;-60
2022/07/21 05:25:15;;;;;;;;;20.00;20.00;;;;;21.03;66.54;101405.63;5039790;28;45272;-62
2022/07/21 05:27:40;;;;;;;;;22.00;20.33;;;;;21.11;66.33;101413.09;5057954;28;45519;-61
2022/07/21 05:30:06;;;;;;;;;24.67;20.33;;;;;21.11;66.31;101415.81;5058532;28;45290;-61
2022/07/21 05:32:35;;;;;;;;;23.67;21.00;;;;;21.09;66.19;101417.75;5056370;28;46574;-59
2022/07/21 05:35:01;;;;;;;;;21.67;17.00;;;;;21.06;66.38;101421.59;5057820;28;45367;-61
2022/07/21 05:37:27;;;;;;;;;21.67;19.00;;;;;21.08;66.25;101419.59;5056524;28;45386;-63
2022/07/21 05:39:53;;;;;;;;;17.33;17.00;;;;;21.08;66.43;101419.59;5057957;28;45624;-63
2022/07/21 05:42:18;;;;;;;;;21.00;19.67;;;;;21.04;66.37;101423.56;5057621;28;45371;-61
2022/07/21 05:44:44;;;;;;;;;21.00;18.67;;;;;20.99;66.51;101415.03;5073439;27;45456;-60
2022/07/21 05:47:09;;;;;;;;;17.00;16.67;;;;;21.06;66.56;101435.13;5057619;28;45315;-61
2022/07/21 05:49:34;;;;;;;;;18.00;17.00;;;;;21.01;66.46;101412.19;5057584;28;45335;-60
2022/07/21 05:52:00;;;;;;;;;18.67;18.67;;;;;21.04;66.81;101420.88;5057311;28;45447;-60
2022/07/21 05:54:25;;;;;;;;;22.00;19.33;;;;;21.06;66.62;101426.13;5057189;28;45429;-59
2022/07/21 05:56:50;;;;;;;;;20.00;17.33;;;;;21.17;66.68;101431.47;5056107;28;45404;-60
2022/07/21 05:59:16;;;;;;;;;20.67;20.67;;;;;21.24;66.49;101429.09;5055649;28;45336;-61
2022/07/21 06:01:41;;;;;;;;;22.00;22.00;;;;;21.27;66.14;101428.88;5055805;28;45430;-60
2022/07/21 06:04:07;;;;;;;;;20.00;20.00;;;;;21.29;66.17;101429.59;5057471;28;45284;-60
2022/07/21 06:06:32;;;;;;;;;22.33;20.33;;;;;21.26;66.09;101424.44;5057440;28;45345;-60
2022/07/21 06:08:58;;;;;;;;;22.67;20.00;;;;;21.29;66.36;101443.97;5056638;28;45311;-61
2022/07/21 06:11:23;;;;;;;;;24.67;21.67;;;;;21.28;66.21;101436.84;5057506;28;46857;-61
2022/07/21 06:13:49;;;;;;;;;24.67;21.33;;;;;21.36;66.18;101433.47;5057975;28;45161;-61
2022/07/21 06:16:14;;;;;;;;;24.33;22.67;;;;;21.41;65.83;101437.47;5055943;28;45306;-60
2022/07/21 06:18:40;;;;;;;;;20.33;19.00;;;;;21.41;65.57;101442.88;5057576;28;45526;-59
2022/07/21 06:21:05;;;;;;;;;24.67;24.67;;;;;21.46;66.22;101445.19;5056877;28;45449;-61
2022/07/21 06:23:31;;;;;;;;;23.00;20.33;;;;;21.51;65.86;101442.94;5055628;28;45327;-60
2022/07/21 06:25:57;;;;;;;;;22.67;22.33;;;;;21.53;65.40;101445.50;5056786;28;45448;-60
2022/07/21 06:28:22;;;;;;;;;23.33;23.00;;;;;21.49;65.76;101450.34;5056967;28;45513;-61
2022/07/21 06:30:48;;;;;;;;;24.67;23.00;;;;;21.50;65.61;101449.34;5056612;28;46360;-61
2022/07/21 06:33:14;;;;;;;;;19.33;19.33;;;;;21.50;65.20;101446.63;5056818;28;45348;-61
2022/07/21 06:35:39;;;;;;;;;20.33;19.67;;;;;21.55;65.20;101451.63;5057201;28;45287;-60
2022/07/21 06:38:05;;;;;;;;;21.33;21.33;;;;;21.52;65.20;101447.34;5056950;28;45307;-60
2022/07/21 06:40:30;;;;;;;;;21.67;19.00;;;;;21.45;65.63;101438.91;5056612;28;45295;-60
2022/07/21 06:42:56;;;;;;;;;21.00;21.00;;;;;21.60;65.26;101452.94;5056868;28;45344;-60
2022/07/21 06:45:22;;;;;;;;;24.00;18.00;;;;;21.62;65.24;101444.69;5056844;28;45788;-60
2022/07/21 06:47:47;;;;;;;;;17.00;16.00;;;;;21.67;65.29;101451.41;5056895;28;45290;-63
2022/07/21 06:50:13;;;;;;;;;28.33;23.33;;;;;21.65;64.85;101461.50;5055317;28;47585;-59
2022/07/21 06:52:39;;;;;;;;;25.67;23.00;;;;;21.67;64.94;101458.66;5056683;28;45322;-59
2022/07/21 06:55:06;;;;;;;;;21.33;20.67;;;;;21.71;65.12;101454.69;5055245;28;45329;-60
2022/07/21 06:57:36;;;;;;;;;21.00;18.00;;;;;21.76;65.16;101453.28;5056377;28;45687;-63
2022/07/21 07:00:04;;;;;;;;;21.33;18.67;;;;;21.77;65.38;101443.31;5055864;28;45504;-59
2022/07/21 07:02:29;;;;;;;;;22.33;21.33;;;;;21.82;64.48;101454.59;5055346;28;45201;-60
2022/07/21 07:04:55;;;;;;;;;27.67;24.33;;;;;21.88;64.81;101458.59;5057363;28;45277;-61
2022/07/21 07:07:21;;;;;;;;;19.00;17.33;;;;;21.94;64.71;101458.91;5056713;28;45621;-59
2022/07/21 07:09:46;;;;;;;;;20.33;18.67;;;;;21.96;64.33;101464.16;5056096;28;45358;-59
2022/07/21 07:12:12;;;;;;;;;20.33;17.67;;;;;21.99;64.26;101462.03;5054974;28;45370;-60
2022/07/21 07:14:37;;;;;;;;;22.00;22.00;;;;;22.05;63.95;101468.75;5056048;28;45351;-60
2022/07/21 07:17:03;;;;;;;;;24.33;22.00;;;;;22.09;64.53;101464.81;5056521;28;45575;-60
2022/07/21 07:19:30;;;;;;;;;21.67;21.00;;;;;22.19;64.36;101475.66;5054842;28;46960;-60
2022/07/21 07:21:56;;;;;;;;;21.00;20.00;;;;;22.19;63.80;101468.41;5056026;28;45269;-60
2022/07/21 07:24:22;;;;;;;;;18.33;18.00;;;;;22.23;63.51;101472.53;5056488;28;45482;-63
2022/07/21 07:26:47;;;;;;;;;22.00;19.00;;;;;22.24;63.43;101474.25;5056153;28;45397;-61
2022/07/21 07:29:13;;;;;;;;;22.67;21.00;;;;;22.22;63.88;101472.69;5054576;28;47731;-62
2022/07/21 07:31:39;;;;;;;;;23.67;20.00;;;;;22.31;63.38;101472.69;5055836;28;45353;-60
2022/07/21 07:34:05;;;;;;;;;22.67;18.00;;;;;22.30;63.55;101478.25;5056014;28;45303;-60
2022/07/21 07:36:31;;;;;;;;;22.33;19.67;;;;;22.40;63.15;101470.13;5055905;28;45604;-60
2022/07/21 07:38:57;;;;;;;;;22.33;22.33;;;;;22.43;63.50;101478.00;5055451;28;46355;-60
2022/07/21 07:41:24;;;;;;;;;28.00;22.67;;;;;22.46;62.71;101466.88;5055365;28;45317;-60
2022/07/21 07:43:51;;;;;;;;;26.00;24.33;;;;;22.50;62.97;101477.28;5055521;28;45919;-60
2022/07/21 07:46:17;;;;;;;;;22.33;22.33;;;;;22.50;62.97;101487.25;5055743;28;45466;-59
2022/07/21 07:48:42;;;;;;;;;26.00;21.33;;;;;22.53;63.24;101478.88;5055728;28;45516;-59
2022/07/21 07:51:09;;;;;;;;;22.67;22.67;;;;;22.54;63.36;101477.88;5054375;28;45356;-60
2022/07/21 07:53:35;;;;;;;;;23.00;22.00;;;;;22.60;62.78;101488.97;5055614;28;45389;-60
2022/07/21 07:56:00;;;;;;;;;26.00;26.00;;;;;22.58;61.94;101488.28;5056260;28;45320;-60
2022/07/21 07:58:26;;;;;;;;;27.67;26.00;;;;;22.57;62.58;101493.84;5056159;28;46144;-60
2022/07/21 08:00:51;;;;;;;;;27.67;25.00;;;;;22.45;62.88;101484.13;5055880;28;45404;-61
2022/07/21 08:03:17;;;;;;;;;23.67;21.33;;;;;22.54;62.70;101497.69;5055799;28;45220;-61
2022/07/21 08:05:42;;;;;;;;;26.00;26.00;;;;;22.54;62.60;101496.84;5056159;28;45622;-61
2022/07/21 08:08:08;;;;;;;;;27.67;26.67;;;;;22.63;62.72;101495.97;5055169;28;46090;-61
2022/07/21 08:10:33;;;;;;;;;21.33;20.33;;;;;22.70;62.26;101499.84;5055024;28;45307;-59
2022/07/21 08:12:59;;;;;;;;;33.00;30.00;;;;;22.57;62.05;101491.13;5058269;28;45397;-59
2022/07/21 08:15:24;;;;;;;;;29.67;27.33;;;;;22.62;62.64;101496.97;5059316;28;45334;-59
2022/07/21 08:17:50;;;;;;;;;28.67;24.00;;;;;22.70;62.67;101501.69;5059182;28;45401;-60
2022/07/21 08:20:15;;;;;;;;;29.00;27.00;;;;;22.70;62.52;101507.13;5059446;28;45276;-60
2022/07/21 08:22:41;;;;;;;;;30.33;28.67;;;;;22.82;62.21;101508.69;5059424;28;45223;-61
2022/07/21 08:25:06;;;;;;;;;25.67;25.67;;;;;22.94;61.66;101505.72;5059864;28;45545;-59
2022/07/21 08:27:32;;;;;;;;;27.67;26.00;;;;;23.03;61.42;101503.13;5059075;28;46090;-60
2022/07/21 08:29:58;;;;;;;;;25.67;25.33;;;;;23.12;61.41;101513.13;5060143;28;45337;-62
2022/07/21 08:32:23;;;;;;;;;28.67;25.00;;;;;23.20;61.05;101516.81;5060417;28;45411;-61
2022/07/21 08:34:48;;;;;;;;;35.67;30.00;;;;;23.23;60.92;101510.25;5060079;28;45331;-60
2022/07/21 08:37:14;;;;;;;;;29.00;22.67;;;;;23.31;60.97;101509.50;5057853;28;45368;-59
2022/07/21 08:39:40;;;;;;;;;26.33;24.67;;;;;23.34;60.66;101512.78;5058830;28;45298;-59
2022/07/21 08:42:09;;;;;;;;;31.67;25.33;;;;;23.39;60.58;101510.50;5040657;28;45444;-59
2022/07/21 08:44:35;;;;;;;;;24.67;23.33;;;;;23.42;60.50;101499.31;5058596;28;45394;-60
2022/07/21 08:47:01;;;;;;;;;28.33;28.00;;;;;23.32;59.98;101512.09;5057028;28;47576;-60
2022/07/21 08:49:27;;;;;;;;;32.00;30.00;;;;;23.42;60.57;101507.47;5058554;28;45217;-61
2022/07/21 08:51:52;;;;;;;;;25.67;24.33;;;;;23.49;60.46;101505.03;5058301;28;45370;-60
2022/07/21 08:54:22;;;;;;;;;32.33;28.33;;;;;23.59;59.25;101505.91;5057465;28;45677;-59
2022/07/21 08:56:48;;;;;;;;;25.33;24.33;;;;;23.60;60.30;101506.75;5058436;28;46353;-59
2022/07/21 08:59:14;;;;;;;;;26.33;26.33;;;;;23.69;59.37;101494.97;5058345;28;45433;-60
2022/07/21 09:01:39;;;;;;;;;31.00;28.67;;;;;23.75;59.70;101494.41;5058096;28;45438;-60
2022/07/21 09:04:25;;;;;;;;;25.00;25.00;;;;;23.99;58.91;101507.44;5058319;28;45339;-59
2022/07/21 09:06:59;;;;;;;;;28.67;25.67;;;;;24.11;57.90;101507.09;5058076;28;45315;-60
2022/07/21 09:09:27;;;;;;;;;26.67;24.67;;;;;24.32;57.61;101508.69;5057899;28;45322;-59
2022/07/21 09:11:53;;;;;;;;;26.33;24.00;;;;;24.46;56.71;101502.72;5074133;27;45353;-59
2022/07/21 09:14:21;;;;;;;;;27.33;24.33;;;;;24.63;55.75;101503.78;5058482;28;45540;-60
2022/07/21 09:16:50;;;;;;;;;27.67;24.00;;;;;24.78;56.60;101504.94;5058149;28;45406;-60
2022/07/21 09:19:22;;;;;;;;;26.33;26.33;;;;;24.86;56.37;101506.84;5057758;28;45365;-61
2022/07/21 09:21:49;;;;;;;;;31.33;26.00;;;;;24.93;56.17;101510.66;5058115;28;45394;-60
2022/07/21 09:24:25;;;;;;;;;33.00;27.67;;;;;24.97;56.22;101512.06;5058253;28;45397;-60
2022/07/21 09:27:02;;;;;;;;;27.00;25.33;;;;;25.10;55.58;101507.09;5056120;28;45378;-60
2022/07/21 09:29:36;;;;;;;;;25.67;25.00;;;;;25.05;55.16;101503.16;5057654;28;45205;-60
2022/07/21 09:32:21;;;;;;;;;25.33;23.00;;;;;24.99;56.79;101502.72;5057445;28;45291;-59
2022/07/21 09:34:49;;;;;;;;;24.00;20.75;;;;;25.10;55.68;101509.81;5057977;28;45625;-60
2022/07/21 09:37:15;;;;;;;;;27.33;26.00;;;;;25.12;55.64;101512.38;5056468;28;47307;-61
2022/07/21 09:39:46;;;;;;;;;24.00;21.33;;;;;25.10;54.67;101498.94;5058037;28;45459;-60
2022/07/21 09:42:18;;;;;;;;;23.25;22.00;;;;;25.18;55.84;101517.19;5056630;28;45196;-60
2022/07/21 09:44:46;;;;;;;;;25.67;23.00;;;;;25.13;55.57;101514.09;5056043;28;45494;-60
2022/07/21 09:47:14;;;;;;;;;26.00;25.00;;;;;25.02;56.25;101509.78;5057063;28;45322;-59
2022/07/21 09:49:41;;;;;;;;;23.75;23.25;;;;;25.06;54.31;101522.03;5057253;28;45304;-59
2022/07/21 09:52:29;;;;;;;;;29.00;27.00;;;;;24.95;55.13;101522.25;5057384;28;45945;-59
2022/07/21 09:54:57;;;;;;;;;25.75;24.00;;;;;24.90;55.52;101520.00;5056279;28;45448;-61
2022/07/21 09:57:23;;;;;;;;;29.67;26.00;;;;;24.97;56.24;101503.91;5057390;28;45352;-59
2022/07/21 09:59:49;;;;;;;;;23.67;21.67;;;;;25.37;55.39;101499.78;5057568;28;45338;-60
2022/07/21 10:02:16;;;;;;;;;24.00;21.00;;;;;25.84;54.55;101497.56;5056330;28;45217;-60
2022/07/21 10:04:44;;;;;;;;;32.00;23.25;;;;;25.98;53.76;101493.34;5058505;28;45582;-60
2022/07/21 10:07:10;;;;;;;;;23.25;22.75;;;;;26.01;52.80;101493.88;5057213;28;45385;-60
2022/07/21 10:09:36;;;;;;;;;23.50;20.25;;;;;26.04;53.64;101487.22;5056734;28;45330;-65
2022/07/21 10:12:01;;;;;;;;;24.50;20.75;;;;;26.31;53.23;101494.31;5057108;28;45334;-60
2022/07/21 10:14:27;;;;;;;;;24.50;24.50;;;;;26.64;51.44;101498.84;5055652;28;45370;-61
2022/07/21 10:16:53;;;;;;;;;24.75;23.00;;;;;26.88;50.79;101492.53;5055562;28;46320;-60
2022/07/21 10:19:26;;;;;;;;;21.50;19.50;;;;;27.14;50.52;101476.00;5056998;28;45286;-60
2022/07/21 10:22:04;;;;;;;;;23.75;22.75;;;;;27.38;50.56;101488.78;5055775;28;45307;-60
2022/07/21 10:24:31;;;;;;;;;25.00;23.00;;;;;27.37;48.99;101492.53;5056884;28;45627;-61
2022/07/21 10:27:08;;;;;;;;;19.50;17.75;;;;;27.31;48.98;101498.69;5056595;28;46255;-60
2022/07/21 10:29:52;;;;;;;;;19.75;18.00;;;;;27.35;48.82;101500.06;5056122;28;45365;-61
2022/07/21 10:32:28;;;;;;;;;18.25;18.25;;;;;27.36;49.11;101501.75;5056622;28;45342;-61
2022/07/21 10:34:55;;;;;;;;;22.00;21.00;;;;;27.27;49.08;101502.78;5056539;28;45551;-61
2022/07/21 10:37:39;;;;;;;;;20.75;18.00;;;;;26.97;49.98;101502.44;5056818;28;46313;-62
2022/07/21 10:40:06;;;;;;;;;23.75;22.25;;;;;26.87;49.80;101501.75;5055082;28;45443;-61
2022/07/21 10:42:32;;;;;;;;;22.75;22.50;;;;;26.78;50.18;101491.84;5055458;28;45438;-61
2022/07/21 10:44:57;;;;;;;;;25.00;22.75;;;;;26.66;49.46;101506.84;5056457;28;45462;-61
2022/07/21 10:47:30;;;;;;;;;21.25;19.50;;;;;26.47;50.40;101493.53;5056322;28;45472;-60
2022/07/21 10:49:59;;;;;;;;;22.00;22.00;;;;;26.35;50.82;101499.25;5056188;28;45358;-59
2022/07/21 10:52:34;;;;;;;;;25.00;20.75;;;;;26.32;51.20;101496.88;5056631;28;45335;-60
2022/07/21 10:55:26;;;;;;;;;23.75;20.00;;;;;26.22;51.26;101501.63;5056586;28;45316;-58
2022/07/21 10:58:12;;;;;;;;;18.00;15.00;;;;;26.16;50.39;101502.25;5056420;28;46193;-61
2022/07/21 11:00:37;;;;;;;;;20.25;18.75;;;;;26.14;51.33;101498.84;5056348;28;45265;-59
2022/07/21 11:03:13;;;;;;;;;20.25;19.25;;;;;26.21;50.69;101496.34;5054902;28;45374;-60
2022/07/21 11:06:17;;;;;;;;;17.75;17.75;;;;;26.15;50.75;101503.28;5056858;28;45579;-60
2022/07/21 11:08:47;;;;;;;;;22.00;19.25;;;;;26.03;51.07;101499.16;5056026;28;45973;-60
2022/07/21 11:11:25;;;;;;;;;19.25;19.00;;;;;26.12;51.09;101500.91;5056098;28;45362;-59
2022/07/21 11:13:59;;;;;;;;;21.75;19.75;;;;;26.11;50.50;101499.19;5056484;28;45342;-61
2022/07/21 11:16:40;;;;;;;;;22.00;19.00;;;;;26.22;50.68;101500.75;5056583;28;45391;-60